Accueil
METAR-TAF:

METAR-TAF

Aéroports :

Aéroport de Toulouse-Blagnac

Toulouse, France

latitude: 43-38N, longitude: 001-22E, altitude: 152 m

Observation

Le bulletin a été fait il y a 36 minutes, à 18:30 UTC
Vent 7 kt de sud/sud-est
Température 29°C
Humidité 48%
Pression 1017 hPa
Visibilité 10 km ou plus
pas de nuages en-dessous de 1500 mètres et pas de cumulonimbus.

METAR: LFBO 201830Z AUTO 15007KT CAVOK 29/17 Q1017 NOSIG

Heure: 21:06 (19:06 UTC)

Prévision

Le bulletin a été fait il y a 2 heures et 6 minutes, à 17:00 UTC
Prévision valable du 20 à 18 UTC au 21 à 24 UTC
Vent 7 kt de est/sud-est
Visibilité 10 km ou plus
pas de nuages en-dessous de 1500 mètres et pas de cumulonimbus.
Temporairement
du 21 à 03 UTC au 21 à 08 UTC
Vent 5 kt de ouest
Nuages fragmentés à une hauteur de 500 ft

TAF: LFBO 201700Z 2018/2124 12007KT CAVOK TEMPO 2103/2108 27005KT BKN005

Observations et prévisions météorologiques de plus de 4000 aéroports (messages METAR et TAF).

Les stations disponibles sont représentées par des disques jaunes et rouges sur la carte.

Passer la souris dessus pour voir le nom de la station.

Cliquer dessus pour voir les observations et prévisions météorologiques.

Pour changer de carte: cliquez sur les boutons verts avec une croix noire pour zoomer, sur le bouton vert avec un tiret pour effectuer un zoom arrière, ou sur les flèches vertes pour les cartes adjacentes.


METAR-TAF: